My webcam more information My webcam


Thunder radar more information blitzortung!


Rain radar more information rain snow radar


Visit our other weather sites:

Template documentation
and downloads

And another site


You find our weather info also at:

Weather Underground

AWEKAS

Citizen Weather Observer Program (CWOP)

HAMweather, WeatherForYou, PWS Weather


Weather Underground History page Text

Daily Summary for June 24, 2018 Units:  English    Metric   Both
« Previous Day
Next Day »
Daily Weekly Monthly Yearly Custom
  Current: High: Low: Average:
Temperature: 66.2 °F TemperatureF °F 58.6 °F 65.7 °F
Dew Point: 65.3 °F DewpointF °F 57.7 °F 63.1 °F
Humidity: 97 % Humidity % 76 % 91 %
Wind Speed: 0.9 mph WindSpeedMPH mph 0.0 mph 0.2 mph
Wind Gust: 1.0 mph WindSpeedGustMPH mph - -
Wind:West - - SSW
Pressure: 29.81 in PressureIn in 29.77 in -
Precipitation: 0.07 in      
Historical Graphs
 
 
Tabular Data for June 24, 2018
Time Temperature Dew Point Pressure Wind Wind Speed Wind Gust Humidity Rainfall Rate (Hourly)
TemperatureF °F DewpointF °F PressureIn in Calm     Humidity % HourlyPrecipIn in
00:09 59.5 °F 58.6 °F 29.83 in Calm   1.0 mph 97 % 0.00 in
00:19 59.5 °F 58.6 °F 29.84 in Calm     97 % 0.00 in
00:29 59.5 °F 58.6 °F 29.84 in Calm     97 % 0.00 in
00:39 59.5 °F 58.6 °F 29.83 in Calm     97 % 0.00 in
00:49 59.5 °F 58.6 °F 29.84 in Calm     97 % 0.00 in
00:59 59.4 °F 58.5 °F 29.85 in Calm     97 % 0.00 in
01:09 59.4 °F 58.5 °F 29.84 in Calm   1.0 mph 97 % 0.00 in
01:19 59.4 °F 58.5 °F 29.84 in Calm     97 % 0.00 in
01:29 59.4 °F 58.5 °F 29.83 in Calm     97 % 0.00 in
01:39 59.2 °F 58.3 °F 29.83 in Calm     97 % 0.00 in
01:49 59.2 °F 58.3 °F 29.83 in Calm     97 % 0.00 in
01:59 59.2 °F 58.3 °F 29.83 in Calm     97 % 0.00 in
02:09 59.2 °F 58.3 °F 29.82 in Calm     97 % 0.00 in
02:19 59.2 °F 58.3 °F 29.82 in Calm     97 % 0.00 in
02:29 59.2 °F 58.3 °F 29.83 in Calm     97 % 0.00 in
02:39 59.2 °F 58.3 °F 29.83 in Calm     97 % 0.00 in
02:49 59.2 °F 58.3 °F 29.82 in Calm   1.0 mph 97 % 0.00 in
02:59 59.2 °F 58.3 °F 29.83 in Calm     97 % 0.00 in
03:09 59.0 °F 58.1 °F 29.83 in Calm     97 % 0.00 in
03:19 59.2 °F 58.3 °F 29.82 in Calm     97 % 0.00 in
03:29 59.2 °F 58.3 °F 29.82 in Calm     97 % 0.00 in
03:39 59.0 °F 58.1 °F 29.82 in Calm     97 % 0.00 in
03:49 59.0 °F 58.1 °F 29.82 in Calm     97 % 0.00 in
03:59 59.0 °F 58.1 °F 29.81 in Calm     97 % 0.00 in
04:09 59.0 °F 58.1 °F 29.81 in Calm   1.0 mph 97 % 0.00 in
04:19 59.0 °F 58.1 °F 29.82 in Calm     97 % 0.00 in
04:29 59.0 °F 58.1 °F 29.82 in Calm     97 % 0.00 in
04:39 58.8 °F 57.9 °F 29.82 in Calm   1.0 mph 97 % 0.00 in
04:49 58.8 °F 57.9 °F 29.82 in Calm     97 % 0.00 in
04:59 58.8 °F 57.9 °F 29.83 in Calm     97 % 0.00 in
05:09 58.6 °F 57.7 °F 29.83 in Calm     97 % 0.00 in
05:19 58.6 °F 57.7 °F 29.83 in Calm     97 % 0.00 in
05:29 58.6 °F 57.7 °F 29.83 in Calm     97 % 0.00 in
05:39 58.8 °F 57.9 °F 29.83 in Calm     97 % 0.00 in
05:49 58.8 °F 57.9 °F 29.83 in Calm     97 % 0.00 in
05:59 59.0 °F 58.1 °F 29.83 in Calm     97 % 0.00 in
06:09 59.2 °F 58.3 °F 29.83 in Calm     97 % 0.00 in
06:19 59.2 °F 58.3 °F 29.84 in Calm     97 % 0.00 in
06:29 59.2 °F 58.3 °F 29.84 in Calm     97 % 0.00 in
06:39 59.4 °F 58.5 °F 29.84 in Calm     97 % 0.00 in
06:49 59.7 °F 59.2 °F 29.84 in Calm     98 % 0.00 in
06:59 59.5 °F 58.6 °F 29.84 in Calm     97 % 0.00 in
07:09 59.7 °F 58.8 °F 29.85 in Calm     97 % 0.00 in
07:19 60.1 °F 59.2 °F 29.85 in Calm     97 % 0.00 in
07:29 60.4 °F 59.5 °F 29.85 in Calm     97 % 0.00 in
07:39 60.4 °F 59.5 °F 29.85 in Calm     97 % 0.00 in
07:49 61.0 °F 60.1 °F 29.85 in Calm     97 % 0.00 in
07:59 61.2 °F 60.3 °F 29.85 in Calm     97 % 0.00 in
08:10 61.9 °F 61.0 °F 29.85 in Calm     97 % 0.00 in
08:20 62.1 °F 61.2 °F 29.85 in Calm     97 % 0.00 in
08:30 62.4 °F 61.5 °F 29.85 in Calm     97 % 0.00 in
08:40 62.6 °F 61.5 °F 29.85 in Calm   1.0 mph 96 % 0.00 in
08:50 63.0 °F 61.9 °F 29.85 in Calm     96 % 0.00 in
09:00 63.1 °F 62.1 °F 29.85 in Calm     96 % 0.00 in
09:10 63.5 °F 62.1 °F 29.85 in Calm     95 % 0.00 in
09:20 63.9 °F 62.4 °F 29.85 in Calm     95 % 0.00 in
09:30 64.2 °F 62.8 °F 29.85 in Calm     95 % 0.00 in
09:40 64.6 °F 62.8 °F 29.85 in Calm     94 % 0.00 in
09:50 64.8 °F 63.0 °F 29.85 in Calm     94 % 0.00 in
10:00 65.3 °F 63.5 °F 29.85 in Calm     94 % 0.00 in
10:10 65.5 °F 63.3 °F 29.85 in Calm     93 % 0.00 in
10:20 65.7 °F 63.5 °F 29.85 in Calm     93 % 0.00 in
10:30 66.0 °F 63.7 °F 29.85 in Calm     92 % 0.00 in
10:40 66.4 °F 64.0 °F 29.86 in Calm     92 % 0.00 in
10:50 66.4 °F 64.0 °F 29.86 in Calm     92 % 0.00 in
11:00 66.4 °F 64.0 °F 29.86 in Calm   1.0 mph 92 % 0.00 in
11:10 66.7 °F 64.4 °F 29.86 in Calm     92 % 0.00 in
11:20 66.9 °F 64.6 °F 29.86 in Calm     92 % 0.00 in
11:30 67.3 °F 64.6 °F 29.85 in Calm     91 % 0.00 in
11:40 68.0 °F 65.3 °F 29.85 in Calm     91 % 0.00 in
11:50 68.7 °F 65.3 °F 29.85 in Calm     89 % 0.00 in
12:00 69.6 °F 66.2 °F 29.85 in Calm   1.0 mph 89 % 0.00 in
12:10 70.5 °F 66.4 °F 29.85 in Calm     87 % 0.00 in
12:20 72.0 °F 67.3 °F 29.85 in Calm     85 % 0.00 in
12:30 72.0 °F 67.5 °F 29.85 in Calm     86 % 0.00 in
12:40 73.0 °F 67.3 °F 29.85 in SSW 0.9 mph 2.0 mph 82 % 0.00 in
12:50 73.6 °F 67.5 °F 29.84 in SSW 0.9 mph 1.0 mph 81 % 0.00 in
13:00 74.7 °F 68.7 °F 29.84 in Calm   1.0 mph 82 % 0.00 in
13:10 75.7 °F 68.4 °F 29.83 in Calm   1.0 mph 78 % 0.00 in
13:20 76.1 °F 69.4 °F 29.83 in Calm     80 % 0.00 in
13:30 76.6 °F 69.3 °F 29.83 in South 0.9 mph 1.0 mph 78 % 0.00 in
13:40 77.4 °F 69.3 °F 29.83 in Calm   2.0 mph 76 % 0.00 in
13:50 75.2 °F 68.2 °F 29.83 in SSE 0.9 mph 2.0 mph 79 % 0.00 in
14:00 74.5 °F 67.8 °F 29.83 in SSW 2.0 mph 3.0 mph 80 % 0.00 in
14:10 74.8 °F 67.8 °F 29.83 in Calm   3.0 mph 79 % 0.00 in
14:20 75.7 °F 68.7 °F 29.83 in Calm   1.0 mph 79 % 0.00 in
14:30 76.5 °F 69.4 °F 29.83 in SSW 0.9 mph 3.0 mph 79 % 0.00 in
14:40 76.1 °F 68.4 °F 29.83 in Calm   2.0 mph 77 % 0.00 in
14:50 75.7 °F 68.4 °F 29.83 in SSW 2.0 mph 2.0 mph 78 % 0.00 in
15:00 74.5 °F 67.8 °F 29.83 in SSW 0.9 mph 2.0 mph 80 % 0.00 in
15:10 74.8 °F 68.2 °F 29.83 in SSW 0.9 mph 2.0 mph 80 % 0.00 in
15:20 75.7 °F 68.7 °F 29.83 in SW 0.9 mph 4.0 mph 79 % 0.00 in
15:30 76.3 °F 68.9 °F 29.82 in SSW 2.0 mph 3.0 mph 78 % 0.00 in
15:40 75.9 °F 68.9 °F 29.82 in SSW 2.9 mph 3.0 mph 79 % 0.00 in
15:50 75.6 °F 68.2 °F 29.83 in SW 2.0 mph 3.0 mph 78 % 0.00 in
16:00 74.7 °F 68.0 °F 29.82 in Calm   3.0 mph 80 % 0.00 in
16:10 74.7 °F 68.4 °F 29.82 in SSW 2.0 mph 3.0 mph 81 % 0.00 in
16:20 74.8 °F 68.5 °F 29.82 in SW 2.0 mph 2.0 mph 81 % 0.00 in
16:30 74.7 °F 68.0 °F 29.82 in SSW 2.0 mph 3.0 mph 80 % 0.00 in
16:40 73.6 °F 67.8 °F 29.82 in SW 2.0 mph 4.0 mph 82 % 0.00 in
16:50 73.0 °F 68.0 °F 29.82 in WSW 2.9 mph 4.0 mph 84 % 0.00 in
17:00 73.2 °F 67.5 °F 29.82 in SSW 0.9 mph 1.0 mph 82 % 0.00 in
17:10 72.7 °F 67.3 °F 29.81 in SW 0.9 mph 2.0 mph 83 % 0.00 in
17:20 72.1 °F 67.5 °F 29.81 in Calm   1.0 mph 85 % 0.00 in
17:30 72.0 °F 67.3 °F 29.81 in Calm   1.0 mph 85 % 0.00 in
17:40 71.4 °F 67.1 °F 29.82 in SW 0.9 mph 2.0 mph 86 % 0.00 in
17:50 70.9 °F 66.7 °F 29.82 in Calm     87 % 0.00 in
18:00 70.5 °F 66.7 °F 29.82 in Calm   1.0 mph 88 % 0.00 in
18:10 70.2 °F 66.4 °F 29.82 in Calm   1.0 mph 88 % 0.00 in
18:20 70.2 °F 66.7 °F 29.83 in Calm   1.0 mph 89 % 0.00 in
18:30 70.2 °F 66.7 °F 29.83 in Calm     89 % 0.00 in
18:40 70.3 °F 66.9 °F 29.82 in Calm     89 % 0.00 in
18:50 70.2 °F 66.7 °F 29.82 in Calm     89 % 0.00 in
19:00 70.2 °F 66.7 °F 29.82 in Calm     89 % 0.00 in
19:10 69.8 °F 66.4 °F 29.82 in Calm   1.0 mph 89 % 0.00 in
19:20 69.6 °F 66.6 °F 29.82 in Calm   1.0 mph 90 % 0.00 in
19:30 69.4 °F 66.7 °F 29.82 in Calm   1.0 mph 91 % 0.00 in
19:40 69.3 °F 66.6 °F 29.83 in Calm     91 % 0.00 in
19:50 69.1 °F 66.7 °F 29.83 in Calm     92 % 0.00 in
20:00 68.7 °F 66.6 °F 29.83 in Calm     93 % 0.00 in
20:10 68.5 °F 66.4 °F 29.83 in Calm     93 % 0.00 in
20:20 68.4 °F 66.6 °F 29.83 in Calm   1.0 mph 94 % 0.00 in
20:30 68.4 °F 66.6 °F 29.83 in Calm     94 % 0.00 in
20:40 68.2 °F 66.4 °F 29.83 in Calm     94 % 0.03 in
20:50 67.8 °F 66.4 °F 29.82 in Calm     95 % 0.04 in
21:00 67.8 °F 66.4 °F 29.82 in Calm     95 % 0.04 in
21:10 67.6 °F 66.2 °F 29.82 in Calm     95 % 0.04 in
21:20 67.6 °F 66.4 °F 29.82 in Calm     96 % 0.04 in
21:30 67.3 °F 66.0 °F 29.82 in Calm     96 % 0.04 in
21:40 67.1 °F 65.8 °F 29.81 in Calm     96 % 0.01 in
21:50 66.9 °F 65.7 °F 29.82 in Calm     96 % 0.00 in
22:00 66.7 °F 65.5 °F 29.81 in Calm   1.0 mph 96 % 0.01 in
22:10 66.6 °F 65.3 °F 29.82 in Calm   1.0 mph 96 % 0.01 in
22:20 66.4 °F 65.1 °F 29.81 in Calm     96 % 0.01 in
22:30 66.2 °F 65.3 °F 29.80 in Calm     97 % 0.02 in
22:40 66.2 °F 65.3 °F 29.79 in Calm     97 % 0.02 in
22:50 66.0 °F 65.1 °F 29.79 in Calm     97 % 0.03 in
23:00 66.0 °F 65.1 °F 29.77 in Calm   1.0 mph 97 % 0.02 in
23:10 66.2 °F 65.3 °F 29.80 in Calm     97 % 0.02 in
23:20 66.2 °F 65.3 °F 29.80 in Calm     97 % 0.02 in
23:30 66.2 °F 65.3 °F 29.81 in Calm     97 % 0.01 in
23:40 66.2 °F 65.3 °F 29.81 in West 0.9 mph 1.0 mph 97 % 0.01 in
West Wareham, MA Weather
Compliments of Weather Underground - 4 mb

Script developed by  Jim McMurry - jmcmurry@mwt.net Adapted for the template by  Wim van der Kuil - Leuven-Template.eu

Equipment we use:

Weather-station
Davis Vantage Vue

Weather-program
Meteobridge

Weather-server
TP-LINK TL-MR3020

Provider
Web Hosting By

Davis Vantage Vue

Meteobridge

TP-LINK TL-MR3020

Web Hosting By